Time;durP1;ratioP1;P1;durP2;ratioP2;P2;SDS_P1;SDS_P2;PMS_P1;PMS_P2;Temp;Humidity;BMP_temperature;BMP_pressure;BME280_temperature;BME280_humidity;BME280_pressure;Samples;Min_cycle;Max_cycle;Signal;HPM_P1;HPM_P2
2023/04/06 00:00:08;;;;;;;7.87;2.93;;;;;;;3.82;79.63;101586.63;5114519;28;20483;-68
2023/04/06 00:02:35;;;;;;;7.40;2.97;;;;;;;3.76;79.25;101593.72;5114470;28;20558;-68
2023/04/06 00:05:02;;;;;;;9.33;3.67;;;;;;;3.76;78.82;101577.66;5114550;28;20459;-68
2023/04/06 00:07:30;;;;;;;8.33;2.97;;;;;;;3.63;79.15;101583.22;5114811;28;20444;-68
2023/04/06 00:09:57;;;;;;;7.83;3.03;;;;;;;3.61;80.83;101577.25;5114373;28;20539;-68
2023/04/06 00:12:24;;;;;;;10.13;3.30;;;;;;;3.62;81.68;101578.09;5114614;28;20439;-68
2023/04/06 00:14:50;;;;;;;8.13;3.10;;;;;;;3.58;82.00;101579.59;5114606;28;20440;-68
2023/04/06 00:17:17;;;;;;;8.17;3.13;;;;;;;3.51;81.93;101577.03;5114616;28;20529;-68
2023/04/06 00:19:44;;;;;;;8.30;3.60;;;;;;;3.49;82.04;101577.22;5114405;28;20495;-68
2023/04/06 00:22:11;;;;;;;9.87;3.33;;;;;;;3.49;82.15;101573.75;5113549;28;20881;-68
2023/04/06 00:24:39;;;;;;;6.77;3.10;;;;;;;3.44;82.29;101570.94;5114122;28;20492;-68
2023/04/06 00:27:05;;;;;;;10.07;3.43;;;;;;;3.48;82.73;101569.44;5114100;28;20816;-69
2023/04/06 00:29:32;;;;;;;10.90;3.57;;;;;;;3.46;83.40;101569.69;5114303;28;20440;-68
2023/04/06 00:31:59;;;;;;;11.97;3.80;;;;;;;3.39;84.11;101568.13;5114039;28;20936;-69
2023/04/06 00:34:26;;;;;;;10.37;3.87;;;;;;;3.34;84.74;101566.16;5113937;28;20455;-69
2023/04/06 00:36:52;;;;;;;6.77;3.43;;;;;;;3.31;85.08;101571.13;5114223;28;20492;-69
2023/04/06 00:39:19;;;;;;;10.20;3.73;;;;;;;3.19;86.00;101569.25;5114414;28;20443;-68
2023/04/06 00:41:51;;;;;;;9.10;3.80;;;;;;;3.12;86.40;101567.69;5113790;28;20995;-68
2023/04/06 00:44:18;;;;;;;10.87;4.07;;;;;;;3.14;86.01;101569.09;5113758;28;20972;-69
2023/04/06 00:46:46;;;;;;;7.93;3.33;;;;;;;3.06;86.77;101563.25;5113722;28;20869;-68
2023/04/06 00:49:12;;;;;;;8.10;3.80;;;;;;;2.97;86.94;101566.25;5114035;28;20493;-69
2023/04/06 00:51:39;;;;;;;7.90;3.20;;;;;;;2.96;87.03;101571.81;5113919;28;20440;-69
2023/04/06 00:54:06;;;;;;;10.57;3.80;;;;;;;2.92;87.27;101562.59;5113568;28;20980;-69
2023/04/06 00:56:33;;;;;;;9.23;3.50;;;;;;;2.96;86.81;101566.44;5114008;28;20815;-69
2023/04/06 00:59:01;;;;;;;8.70;3.40;;;;;;;2.86;87.49;101564.31;5113570;28;20504;-69
2023/04/06 01:01:28;;;;;;;10.50;4.00;;;;;;;2.93;87.17;101564.25;5113386;28;20487;-68
2023/04/06 01:03:55;;;;;;;8.93;3.97;;;;;;;2.89;86.94;101561.19;5113347;28;20475;-68
2023/04/06 01:06:22;;;;;;;7.87;3.60;;;;;;;2.74;86.29;101555.41;5113456;28;20439;-68
2023/04/06 01:08:49;;;;;;;7.20;2.90;;;;;;;2.68;85.40;101556.31;5113654;28;20538;-68
2023/04/06 01:11:15;;;;;;;9.07;3.67;;;;;;;2.52;85.21;101558.56;5113336;28;20492;-68
2023/04/06 01:13:42;;;;;;;8.33;2.83;;;;;;;2.39;84.83;101555.19;5113522;28;20512;-68
2023/04/06 01:16:10;;;;;;;8.47;3.53;;;;;;;2.33;84.04;101556.91;5113652;28;20443;-68
2023/04/06 01:18:39;;;;;;;7.13;2.87;;;;;;;2.09;85.63;101550.59;5113493;28;20447;-69
2023/04/06 01:21:08;;;;;;;8.20;2.97;;;;;;;1.95;86.41;101563.28;5113233;28;20545;-69
2023/04/06 01:23:36;;;;;;;10.43;3.07;;;;;;;1.91;86.03;101556.72;5113448;28;20506;-69
2023/04/06 01:26:03;;;;;;;6.80;2.23;;;;;;;1.79;86.78;101546.97;5113265;28;20431;-70
2023/04/06 01:28:30;;;;;;;8.67;3.30;;;;;;;1.68;86.29;101549.31;5113531;28;20891;-68
2023/04/06 01:30:56;;;;;;;7.93;2.93;;;;;;;1.59;86.91;101547.94;5113209;28;20439;-69
2023/04/06 01:33:23;;;;;;;9.40;3.00;;;;;;;1.50;86.93;101549.22;5113573;28;20466;-69
2023/04/06 01:35:50;;;;;;;9.93;3.50;;;;;;;1.40;87.44;101554.25;5117716;28;20439;-69
2023/04/06 01:38:17;;;;;;;7.60;3.20;;;;;;;1.34;86.28;101547.13;5117328;28;20471;-69
2023/04/06 01:40:45;;;;;;;10.50;3.80;;;;;;;1.20;87.15;101549.06;5117327;28;20482;-69
2023/04/06 01:43:12;;;;;;;7.80;3.27;;;;;;;1.19;87.36;101547.41;5117596;28;20494;-69
2023/04/06 01:45:38;;;;;;;6.97;2.50;;;;;;;1.23;86.76;101554.75;5117452;28;20486;-69
2023/04/06 01:48:06;;;;;;;8.23;2.73;;;;;;;1.19;86.88;101550.88;5117184;28;20955;-69
2023/04/06 01:50:32;;;;;;;9.17;2.70;;;;;;;1.29;87.52;101549.63;5117534;28;20439;-69
2023/04/06 01:52:59;;;;;;;8.77;2.77;;;;;;;1.34;87.73;101550.59;5117355;28;20873;-69
2023/04/06 01:55:26;;;;;;;10.47;3.30;;;;;;;1.30;88.51;101548.56;5117334;28;20925;-69
2023/04/06 01:57:54;;;;;;;8.57;3.53;;;;;;;1.35;88.48;101554.09;5116960;28;20440;-69
2023/04/06 02:00:21;;;;;;;9.00;3.10;;;;;;;1.29;88.75;101546.94;5117203;28;20887;-69
2023/04/06 02:02:48;;;;;;;8.10;2.93;;;;;;;1.24;89.30;101539.59;5116983;28;20979;-69
2023/04/06 02:05:15;;;;;;;9.00;3.20;;;;;;;1.15;89.58;101540.84;5126764;22;20491;-79
2023/04/06 02:07:44;;;;;;;8.73;3.40;;;;;;;1.16;89.37;101545.19;5122661;28;20942;-78
2023/04/06 02:10:14;;;;;;;7.67;2.63;;;;;;;1.16;89.69;101539.84;5103709;28;20814;-78
2023/04/06 02:12:40;;;;;;;6.70;3.13;;;;;;;1.12;89.91;101547.44;5101735;28;20501;-79
2023/04/06 02:15:10;;;;;;;8.00;3.10;;;;;;;1.07;90.32;101541.13;5101179;28;20436;-79
2023/04/06 02:17:37;;;;;;;8.30;3.03;;;;;;;1.07;90.23;101538.47;5101759;28;20440;-79
2023/04/06 02:20:04;;;;;;;7.57;2.87;;;;;;;1.11;89.83;101537.81;5100529;28;20471;-79
2023/04/06 02:22:31;;;;;;;9.97;2.93;;;;;;;1.11;89.95;101545.00;5100812;28;20532;-79
2023/04/06 02:24:57;;;;;;;6.90;2.93;;;;;;;1.02;90.16;101541.78;5100857;28;20459;-79
2023/04/06 02:27:25;;;;;;;8.77;3.10;;;;;;;0.98;90.47;101533.38;5100806;28;20951;-79
2023/04/06 02:29:52;;;;;;;9.37;3.60;;;;;;;1.03;89.60;101537.25;5100878;28;20456;-79
2023/04/06 02:32:20;;;;;;;6.97;2.80;;;;;;;1.01;89.56;101540.94;5100650;28;20433;-79
2023/04/06 02:34:47;;;;;;;9.80;3.00;;;;;;;0.97;88.01;101538.91;5100932;28;20429;-79
2023/04/06 02:37:14;;;;;;;7.87;3.30;;;;;;;0.93;87.93;101537.69;5100741;28;20449;-79
2023/04/06 02:39:42;;;;;;;9.20;2.67;;;;;;;0.83;87.76;101542.69;5100014;28;20977;-79
2023/04/06 02:42:09;;;;;;;8.13;2.50;;;;;;;0.75;87.41;101533.91;5100184;28;20487;-79
2023/04/06 02:44:36;;;;;;;8.77;3.33;;;;;;;0.78;87.20;101539.84;5100271;28;20448;-79
2023/04/06 02:47:03;;;;;;;9.77;2.97;;;;;;;0.72;87.83;101539.66;5099251;28;20448;-79
2023/04/06 02:49:33;;;;;;;7.60;2.63;;;;;;;0.63;87.76;101548.94;5100507;28;20475;-79
2023/04/06 02:52:00;;;;;;;8.30;3.53;;;;;;;0.65;88.02;101544.19;5100336;28;20436;-79
2023/04/06 02:54:27;;;;;;;10.53;3.67;;;;;;;0.56;88.21;101540.13;5099771;28;20489;-79
2023/04/06 02:56:54;;;;;;;7.40;2.77;;;;;;;0.62;88.34;101541.13;5099955;28;20433;-79
2023/04/06 02:59:21;;;;;;;8.43;3.07;;;;;;;0.59;88.05;101537.03;5099423;28;20945;-79
2023/04/06 03:01:47;;;;;;;8.10;3.17;;;;;;;0.56;88.12;101542.78;5099316;28;20488;-79
2023/04/06 03:04:14;;;;;;;8.00;3.30;;;;;;;0.53;87.66;101537.88;5099360;28;20787;-80
2023/04/06 03:06:42;;;;;;;10.00;3.37;;;;;;;0.40;88.22;101535.25;5098759;28;20460;-79
2023/04/06 03:09:09;;;;;;;8.93;3.40;;;;;;;0.43;87.95;101543.66;5099038;28;20466;-79
2023/04/06 03:11:36;;;;;;;8.87;3.40;;;;;;;0.50;88.07;101538.31;5097955;28;20933;-81
2023/04/06 03:14:03;;;;;;;8.50;3.13;;;;;;;0.43;88.42;101540.97;5099007;28;20445;-80
2023/04/06 03:16:30;;;;;;;10.07;3.50;;;;;;;0.44;88.51;101544.47;5098146;28;20437;-80
2023/04/06 03:18:57;;;;;;;7.37;2.60;;;;;;;0.47;88.54;101539.53;5098091;28;20858;-80
2023/04/06 03:21:23;;;;;;;12.13;3.90;;;;;;;0.51;88.89;101545.28;5098474;28;20484;-80
2023/04/06 03:23:51;;;;;;;9.93;3.23;;;;;;;0.51;88.97;101539.94;5098285;28;20440;-80
2023/04/06 03:26:18;;;;;;;9.50;3.00;;;;;;;0.52;89.21;101540.75;5097862;28;20968;-80
2023/04/06 03:28:45;;;;;;;9.70;3.00;;;;;;;0.50;89.12;101538.31;5100142;28;20475;-80
2023/04/06 03:31:12;;;;;;;8.57;2.90;;;;;;;0.59;88.88;101544.22;5099329;28;20429;-80
2023/04/06 03:33:39;;;;;;;7.27;2.83;;;;;;;0.58;88.49;101546.06;5099581;28;20457;-80
2023/04/06 03:36:07;;;;;;;7.77;3.07;;;;;;;0.55;88.92;101553.66;5098334;28;20433;-80
2023/04/06 03:38:34;;;;;;;9.93;3.17;;;;;;;0.48;89.90;101556.34;5098422;28;20496;-80
2023/04/06 03:41:02;;;;;;;7.93;3.50;;;;;;;0.49;89.50;101548.16;5099014;28;21035;-80
2023/04/06 03:43:29;;;;;;;8.37;3.03;;;;;;;0.51;89.39;101547.94;5099120;28;20437;-80
2023/04/06 03:45:56;;;;;;;7.10;2.70;;;;;;;0.47;89.80;101554.72;5098837;28;20573;-80
2023/04/06 03:48:23;;;;;;;8.70;3.70;;;;;;;0.48;89.88;101559.81;5098872;28;20472;-80
2023/04/06 03:50:49;;;;;;;9.13;3.30;;;;;;;0.42;89.56;101558.00;5098779;28;20432;-81
2023/04/06 03:53:16;;;;;;;8.20;3.43;;;;;;;0.32;88.59;101573.63;5098623;28;21003;-81
2023/04/06 03:55:43;;;;;;;9.67;4.23;;;;;;;0.20;89.49;101575.28;5098552;28;20445;-80
2023/04/06 03:58:11;;;;;;;8.30;2.83;;;;;;;0.31;88.76;101579.13;5099102;28;20468;-80
2023/04/06 04:00:38;;;;;;;9.87;3.60;;;;;;;0.22;88.55;101583.88;5098641;28;20501;-80
2023/04/06 04:03:05;;;;;;;7.47;3.20;;;;;;;0.24;88.12;101577.31;5099053;28;20477;-81
2023/04/06 04:05:32;;;;;;;10.17;3.77;;;;;;;0.27;87.72;101578.75;5099101;28;20460;-80
2023/04/06 04:07:58;;;;;;;7.43;3.00;;;;;;;0.29;87.38;101583.88;5099024;28;20940;-80
2023/04/06 04:10:25;;;;;;;7.10;3.27;;;;;;;0.24;87.97;101581.84;5099186;28;20445;-80
2023/04/06 04:12:52;;;;;;;10.50;3.23;;;;;;;0.30;88.66;101588.16;5098369;28;20802;-80
2023/04/06 04:15:20;;;;;;;10.07;3.40;;;;;;;0.17;88.81;101587.16;5099413;28;20451;-80
2023/04/06 04:17:49;;;;;;;9.30;3.80;;;;;;;0.14;89.76;101584.13;5098492;28;20433;-81
2023/04/06 04:20:16;;;;;;;8.70;3.10;;;;;;;0.08;89.59;101587.59;5099449;28;20454;-81
2023/04/06 04:22:42;;;;;;;6.50;2.30;;;;;;;0.13;89.59;101590.44;5100136;28;20526;-81
2023/04/06 04:25:10;;;;;;;7.00;2.90;;;;;;;0.20;89.25;101585.94;5099851;28;20457;-81
2023/04/06 04:27:37;;;;;;;8.10;3.27;;;;;;;0.11;89.63;101588.00;5100922;28;20452;-81
2023/04/06 04:30:04;;;;;;;9.50;3.07;;;;;;;0.01;89.63;101592.13;5100583;28;20472;-81
2023/04/06 04:32:32;;;;;;;7.30;2.60;;;;;;;0.03;89.67;101585.53;5101549;28;20501;-81
2023/04/06 04:34:59;;;;;;;6.80;2.53;;;;;;;0.06;89.43;101587.81;5100595;28;20436;-80
2023/04/06 04:37:25;;;;;;;8.83;2.83;;;;;;;-0.04;89.39;101593.56;5096691;28;20448;-80
2023/04/06 04:39:52;;;;;;;9.10;3.37;;;;;;;0.01;88.97;101597.44;5096366;28;20468;-80
2023/04/06 04:42:19;;;;;;;11.07;4.17;;;;;;;-0.04;89.35;101598.06;5096491;28;21020;-81
2023/04/06 04:44:46;;;;;;;8.67;3.47;;;;;;;0.00;89.47;101596.63;5096113;28;20796;-80
2023/04/06 04:47:12;;;;;;;8.67;3.77;;;;;;;-0.05;89.54;101591.06;5096961;28;20449;-80
2023/04/06 04:49:41;;;;;;;7.50;2.80;;;;;;;-0.02;90.18;101598.66;5097167;28;20472;-79
2023/04/06 04:52:07;;;;;;;8.10;3.23;;;;;;;-0.10;90.01;101591.69;5095888;28;20483;-81
2023/04/06 04:54:34;;;;;;;10.27;3.43;;;;;;;-0.15;90.09;101588.00;5095794;28;20439;-81
2023/04/06 04:57:01;;;;;;;8.93;2.80;;;;;;;-0.21;90.95;101594.16;5095838;28;20451;-81
2023/04/06 04:59:29;;;;;;;7.90;2.80;;;;;;;-0.19;91.59;101592.09;5094806;28;20479;-81
2023/04/06 05:01:56;;;;;;;6.10;2.23;;;;;;;-0.05;91.10;101599.06;5094623;28;20487;-80
2023/04/06 05:04:23;;;;;;;10.63;3.70;;;;;;;0.00;91.64;101601.94;5094451;28;20968;-81
2023/04/06 05:06:51;;;;;;;13.90;3.50;;;;;;;0.06;91.67;101603.78;5095588;28;20447;-80
2023/04/06 05:09:18;;;;;;;8.20;3.10;;;;;;;0.03;92.05;101601.53;5095901;28;20471;-80
2023/04/06 05:11:45;;;;;;;8.20;3.20;;;;;;;0.18;91.26;101604.81;5097488;28;20472;-81
2023/04/06 05:14:12;;;;;;;8.37;3.10;;;;;;;0.13;91.96;101614.41;5096872;28;20441;-81
2023/04/06 05:16:38;;;;;;;8.43;3.30;;;;;;;0.17;91.65;101605.00;5097186;28;20436;-80
2023/04/06 05:19:05;;;;;;;8.33;3.50;;;;;;;0.21;91.90;101609.69;5096247;28;20475;-80
2023/04/06 05:21:32;;;;;;;6.70;2.70;;;;;;;0.25;91.60;101605.59;5095972;28;20480;-79
2023/04/06 05:24:02;;;;;;;9.17;4.20;;;;;;;0.27;91.61;101605.41;5094707;28;20459;-79
2023/04/06 05:26:29;;;;;;;13.43;4.97;;;;;;;0.16;92.66;101606.84;5095146;28;20451;-81
2023/04/06 05:28:56;;;;;;;7.27;2.73;;;;;;;0.30;92.68;101612.16;5094482;28;20468;-80
2023/04/06 05:31:23;;;;;;;9.67;3.33;;;;;;;0.40;92.32;101601.88;5094592;28;20447;-81
2023/04/06 05:33:50;;;;;;;9.50;3.70;;;;;;;0.43;91.44;101609.47;5095091;28;20449;-81
2023/04/06 05:36:16;;;;;;;10.67;4.70;;;;;;;0.41;90.12;101608.84;5094512;28;20941;-81
2023/04/06 05:38:43;;;;;;;14.43;4.40;;;;;;;0.38;89.57;101615.41;5095015;28;20512;-79
2023/04/06 05:41:11;;;;;;;9.13;3.60;;;;;;;0.50;89.62;101610.28;5095537;28;20452;-79
2023/04/06 05:43:38;;;;;;;9.80;3.90;;;;;;;0.46;89.84;101619.72;5094544;28;20476;-80
2023/04/06 05:46:05;;;;;;;7.17;3.27;;;;;;;0.57;89.74;101619.06;5094860;28;20452;-79
2023/04/06 05:48:32;;;;;;;11.90;4.13;;;;;;;0.58;89.75;101618.06;5094524;28;20838;-78
2023/04/06 05:50:59;;;;;;;7.60;3.67;;;;;;;0.67;89.62;101615.97;5094551;28;20440;-79
2023/04/06 05:53:28;;;;;;;15.43;4.50;;;;;;;0.73;90.28;101612.47;5094796;28;20440;-79
2023/04/06 05:55:55;;;;;;;12.03;5.10;;;;;;;0.86;90.18;101612.41;5095207;28;20471;-79
2023/04/06 05:58:23;;;;;;;11.63;4.80;;;;;;;0.98;90.63;101612.59;5095124;28;20460;-79
2023/04/06 06:00:50;;;;;;;9.60;4.80;;;;;;;1.10;90.36;101618.88;5094156;28;20440;-79
2023/04/06 06:03:17;;;;;;;12.13;5.90;;;;;;;1.23;90.97;101624.13;5094729;28;20590;-80
2023/04/06 06:05:44;;;;;;;14.60;4.87;;;;;;;1.37;89.97;101619.53;5093948;28;20456;-79
2023/04/06 06:08:11;;;;;;;10.87;5.13;;;;;;;1.46;90.27;101617.44;5093968;28;20468;-79
2023/04/06 06:10:40;;;;;;;13.90;5.03;;;;;;;1.65;89.77;101626.38;5094531;28;20941;-80
2023/04/06 06:13:06;;;;;;;15.27;5.47;;;;;;;1.84;89.84;101624.59;5093718;28;20921;-80
2023/04/06 06:15:35;;;;;;;16.63;6.50;;;;;;;1.97;89.55;101625.28;5093964;28;20448;-80
2023/04/06 06:18:01;;;;;;;25.37;6.77;;;;;;;2.17;89.75;101622.47;5093869;28;20809;-80
2023/04/06 06:20:28;;;;;;;15.03;5.90;;;;;;;2.26;88.07;101613.13;5095937;28;20435;-79
2023/04/06 06:22:55;;;;;;;12.60;5.90;;;;;;;2.49;88.06;101627.72;5097913;28;20764;-79
2023/04/06 06:25:22;;;;;;;12.83;5.37;;;;;;;2.63;86.51;101629.22;5097877;28;20487;-79
2023/04/06 06:27:49;;;;;;;13.10;5.80;;;;;;;2.76;85.44;101629.06;5097768;28;20444;-79
2023/04/06 06:30:17;;;;;;;18.80;5.93;;;;;;;2.88;84.87;101631.81;5097331;28;20436;-79
2023/04/06 06:32:46;;;;;;;12.90;5.63;;;;;;;2.95;84.73;101623.69;5097265;28;20451;-79
2023/04/06 06:35:12;;;;;;;12.37;5.67;;;;;;;3.04;84.99;101627.69;5097352;28;20937;-79
2023/04/06 06:37:39;;;;;;;15.10;5.80;;;;;;;3.23;85.07;101628.47;5097183;28;20428;-79
2023/04/06 06:40:07;;;;;;;11.87;5.00;;;;;;;3.39;84.08;101633.22;5096894;28;21003;-79
2023/04/06 06:42:34;;;;;;;11.83;5.33;;;;;;;3.59;82.83;101637.50;5097062;28;20487;-79
2023/04/06 06:45:01;;;;;;;9.00;4.20;;;;;;;3.70;82.05;101634.00;5097206;28;20445;-79
2023/04/06 06:47:27;;;;;;;14.03;4.53;;;;;;;3.91;80.61;101632.66;5097034;28;20472;-78
2023/04/06 06:49:56;;;;;;;11.07;4.80;;;;;;;4.08;78.89;101636.31;5096661;28;20464;-79
2023/04/06 06:52:23;;;;;;;14.27;4.43;;;;;;;4.25;77.73;101631.03;5097196;28;20432;-79
2023/04/06 06:54:50;;;;;;;18.80;5.60;;;;;;;4.34;76.48;101634.19;5096744;28;20523;-79
2023/04/06 06:57:17;;;;;;;20.07;5.40;;;;;;;4.44;76.42;101639.81;5096766;28;20445;-80
2023/04/06 06:59:44;;;;;;;14.63;5.90;;;;;;;4.57;75.87;101633.41;5096864;28;20476;-79
2023/04/06 07:02:11;;;;;;;14.53;5.50;;;;;;;4.65;75.69;101631.16;5097192;28;20484;-79
2023/04/06 07:04:37;;;;;;;12.80;5.20;;;;;;;4.76;75.31;101633.00;5096713;28;20444;-79
2023/04/06 07:07:05;;;;;;;11.37;4.57;;;;;;;4.88;74.07;101635.69;5096541;28;20428;-79
2023/04/06 07:09:33;;;;;;;15.00;6.13;;;;;;;4.98;73.90;101640.44;5096568;28;20464;-78
2023/04/06 07:12:00;;;;;;;11.17;4.63;;;;;;;5.09;73.65;101636.91;5096828;28;20539;-79
2023/04/06 07:14:27;;;;;;;10.10;4.03;;;;;;;5.22;69.75;101639.31;5096371;28;20448;-79
2023/04/06 07:16:54;;;;;;;9.13;4.03;;;;;;;5.39;68.59;101635.84;5096388;28;20448;-79
2023/04/06 07:19:21;;;;;;;10.50;3.73;;;;;;;5.51;65.79;101629.38;5096264;28;20448;-80
2023/04/06 07:21:49;;;;;;;8.60;3.27;;;;;;;5.69;64.47;101644.47;5095948;28;20842;-80
2023/04/06 07:24:17;;;;;;;8.57;3.47;;;;;;;5.79;63.69;101647.31;5096437;28;20439;-79
2023/04/06 07:26:44;;;;;;;9.93;3.67;;;;;;;5.89;63.08;101640.47;5096613;28;20455;-80
2023/04/06 07:29:11;;;;;;;8.43;3.60;;;;;;;6.02;62.20;101648.25;5097651;28;20809;-80
2023/04/06 07:31:37;;;;;;;10.60;3.73;;;;;;;6.15;61.87;101639.88;5095535;28;20543;-79
2023/04/06 07:34:04;;;;;;;8.67;3.20;;;;;;;6.24;61.31;101638.44;5096332;28;20479;-79
2023/04/06 07:36:31;;;;;;;10.40;3.80;;;;;;;6.32;61.89;101640.69;5096252;28;20452;-79
2023/04/06 07:38:58;;;;;;;12.47;4.43;;;;;;;6.38;61.68;101643.47;5096419;28;20452;-80
2023/04/06 07:41:26;;;;;;;6.50;2.53;;;;;;;6.44;61.79;101637.09;5096204;28;20433;-79
2023/04/06 07:43:53;;;;;;;9.07;4.03;;;;;;;6.53;60.43;101635.59;5096359;28;20547;-80
2023/04/06 07:46:20;;;;;;;10.53;3.50;;;;;;;6.61;60.24;101640.56;5096653;28;20451;-79
2023/04/06 07:48:47;;;;;;;7.50;3.13;;;;;;;6.75;58.10;101644.53;5095780;28;20866;-80
2023/04/06 07:51:14;;;;;;;8.13;3.77;;;;;;;6.82;58.59;101642.47;5096967;28;20452;-80
2023/04/06 07:53:41;;;;;;;10.10;3.73;;;;;;;6.95;57.44;101627.81;5096764;28;20455;-80
2023/04/06 07:56:08;;;;;;;10.97;3.60;;;;;;;7.02;56.77;101638.38;5096022;28;20960;-79
2023/04/06 07:58:36;;;;;;;7.80;2.63;;;;;;;7.13;56.60;101640.16;5095741;28;20456;-79
2023/04/06 08:01:03;;;;;;;10.60;3.10;;;;;;;7.23;56.02;101640.25;5096159;28;20818;-80
2023/04/06 08:03:30;;;;;;;6.80;2.63;;;;;;;7.33;55.77;101637.66;5096183;28;20480;-80
2023/04/06 08:05:56;;;;;;;6.73;2.57;;;;;;;7.40;55.70;101642.06;5098532;28;20465;-80
2023/04/06 08:08:23;;;;;;;5.57;2.00;;;;;;;7.48;54.80;101641.59;5097238;28;20464;-79
2023/04/06 08:10:50;;;;;;;11.50;2.77;;;;;;;7.56;54.37;101635.75;5095661;28;20798;-79
2023/04/06 08:13:17;;;;;;;7.40;2.60;;;;;;;7.67;54.34;101636.66;5119484;22;20519;-65
2023/04/06 08:15:45;;;;;;;6.20;2.77;;;;;;;7.78;54.10;101636.50;5093918;28;21022;-66
2023/04/06 08:18:12;;;;;;;7.93;2.63;;;;;;;7.87;53.80;101634.13;5094380;28;20441;-66
2023/04/06 08:20:39;;;;;;;8.00;2.23;;;;;;;7.96;51.36;101643.38;5093955;28;20436;-67
2023/04/06 08:23:09;;;;;;;8.33;2.27;;;;;;;7.99;52.80;101647.47;5094130;28;20487;-68
2023/04/06 08:25:37;;;;;;;6.93;1.87;;;;;;;7.95;51.56;101643.66;5093708;28;20465;-69
2023/04/06 08:28:03;;;;;;;7.60;1.83;;;;;;;8.02;51.83;101644.25;5093808;28;20496;-65
2023/04/06 08:30:31;;;;;;;10.87;2.13;;;;;;;8.02;52.20;101646.97;5094183;28;20447;-69
2023/04/06 08:32:59;;;;;;;7.17;2.47;;;;;;;8.06;52.80;101637.28;5094008;28;20441;-70
2023/04/06 08:35:27;;;;;;;6.43;2.13;;;;;;;8.07;52.79;101639.72;5093965;28;20500;-66
2023/04/06 08:37:54;;;;;;;6.57;1.90;;;;;;;8.12;51.63;101638.94;5093877;28;20452;-69
2023/04/06 08:40:20;;;;;;;6.70;1.40;;;;;;;8.25;50.68;101641.19;5093852;28;20490;-67
2023/04/06 08:42:55;;;;;;;6.50;1.40;;;;;;;8.37;49.85;101643.75;5093226;28;20476;-64
2023/04/06 08:45:22;;;;;;;8.43;2.10;;;;;;;8.42;49.81;101641.06;5093858;28;20463;-68
2023/04/06 08:47:52;;;;;;;6.47;1.90;;;;;;;8.57;48.16;101646.56;5093844;28;20498;-66
2023/04/06 08:50:20;;;;;;;5.93;1.90;;;;;;;8.68;47.95;101647.44;5093742;28;20432;-66
2023/04/06 08:52:49;;;;;;;5.40;1.77;;;;;;;8.74;47.89;101646.38;5093719;28;20441;-66
2023/04/06 08:55:16;;;;;;;7.73;1.90;;;;;;;8.73;48.71;101646.66;5093683;28;20529;-68
2023/04/06 08:57:43;;;;;;;6.40;1.87;;;;;;;8.73;50.70;101652.88;5093405;28;20441;-67
2023/04/06 09:00:11;;;;;;;5.47;1.50;;;;;;;8.76;48.51;101643.41;5093345;28;20493;-68
2023/04/06 09:02:40;;;;;;;10.20;2.13;;;;;;;8.77;48.59;101648.56;5093387;28;20480;-67
2023/04/06 09:05:09;;;;;;;5.30;1.33;;;;;;;8.80;48.06;101652.63;5093572;28;20533;-67
2023/04/06 09:07:37;;;;;;;6.13;1.47;;;;;;;8.82;48.72;101645.88;5093488;28;20521;-67
2023/04/06 09:10:05;;;;;;;6.97;2.07;;;;;;;8.98;47.01;101643.25;5093173;28;20949;-66
2023/04/06 09:12:32;;;;;;;6.17;1.73;;;;;;;9.13;45.87;101640.63;5093292;28;20539;-67
2023/04/06 09:15:00;;;;;;;6.50;1.80;;;;;;;9.22;46.34;101638.22;5093566;28;20509;-67
2023/04/06 09:17:29;;;;;;;5.80;1.70;;;;;;;9.20;47.60;101627.63;5093368;28;20490;-67
2023/04/06 09:19:56;;;;;;;6.37;1.50;;;;;;;9.23;47.92;101634.41;5093268;28;20452;-67
2023/04/06 09:22:24;;;;;;;6.90;1.97;;;;;;;9.29;48.24;101634.16;5093523;28;20999;-67
2023/04/06 09:24:54;;;;;;;5.63;1.40;;;;;;;9.39;45.87;101627.19;5093241;28;20468;-67
2023/04/06 09:27:31;;;;;;;7.83;1.67;;;;;;;9.45;46.88;101628.78;5092963;28;20436;-66
2023/04/06 09:30:06;;;;;;;5.80;1.53;;;;;;;9.44;47.45;101625.28;5093292;28;20440;-67
2023/04/06 09:32:33;;;;;;;6.40;2.07;;;;;;;9.56;46.38;101633.13;5093117;28;20477;-67
2023/04/06 09:35:07;;;;;;;7.77;1.93;;;;;;;9.62;43.59;101621.25;5093201;28;20498;-67
2023/04/06 09:37:34;;;;;;;6.93;1.77;;;;;;;9.56;44.30;101619.59;5093565;28;20507;-66
2023/04/06 09:40:06;;;;;;;5.40;1.20;;;;;;;9.62;44.74;101621.25;5093137;28;20555;-67
2023/04/06 09:42:34;;;;;;;5.40;1.43;;;;;;;9.63;44.56;101617.47;5093009;28;20413;-67
2023/04/06 09:45:01;;;;;;;7.90;2.50;;;;;;;9.76;42.88;101621.53;5092964;28;20471;-67
2023/04/06 09:47:29;;;;;;;6.67;2.40;;;;;;;9.72;41.96;101620.44;5093014;28;21003;-66
2023/04/06 09:49:58;;;;;;;5.20;1.60;;;;;;;9.60;44.03;101609.88;5092718;28;20933;-66
2023/04/06 09:52:28;;;;;;;7.27;1.87;;;;;;;9.54;44.02;101606.38;5092929;28;20448;-66
2023/04/06 09:54:59;;;;;;;7.40;2.00;;;;;;;9.65;45.35;101609.91;5093932;28;20452;-67
2023/04/06 09:57:33;;;;;;;8.23;2.17;;;;;;;9.76;41.39;101610.72;5097091;28;20474;-67
2023/04/06 10:00:08;;;;;;;6.67;2.20;;;;;;;9.82;41.99;101612.31;5096655;28;20436;-66
2023/04/06 10:02:42;;;;;;;6.00;1.93;;;;;;;9.85;43.55;101609.91;5096595;28;20428;-67
2023/04/06 10:05:13;;;;;;;7.77;1.50;;;;;;;9.93;43.17;101605.03;5096624;28;20463;-67
2023/04/06 10:07:42;;;;;;;6.10;1.60;;;;;;;10.01;42.19;101599.88;5096859;28;20425;-66
2023/04/06 10:10:11;;;;;;;6.30;2.07;;;;;;;10.12;42.62;101606.09;5096528;28;20451;-67
2023/04/06 10:12:40;;;;;;;6.60;1.70;;;;;;;10.08;41.05;101596.88;5096571;28;20455;-66
2023/04/06 10:15:08;;;;;;;6.63;1.87;;;;;;;10.11;41.36;101601.78;5096668;28;20551;-66
2023/04/06 10:17:35;;;;;;;6.37;2.13;;;;;;;10.19;43.59;101597.72;5096286;28;20998;-67
2023/04/06 10:20:08;;;;;;;4.80;1.40;;;;;;;10.31;43.43;101599.06;5096275;28;20489;-66
2023/04/06 10:22:40;;;;;;;5.77;1.67;;;;;;;10.49;43.27;101596.84;5096262;28;20901;-69
2023/04/06 10:25:08;;;;;;;5.40;1.37;;;;;;;10.71;43.68;101591.88;5096559;28;20460;-73
2023/04/06 10:27:35;;;;;;;5.87;1.53;;;;;;;10.95;43.08;101583.13;5096182;28;20432;-68
2023/04/06 10:30:05;;;;;;;5.97;1.60;;;;;;;11.07;40.13;101597.16;5096704;28;20436;-64
2023/04/06 10:32:37;;;;;;;7.60;1.90;;;;;;;11.17;40.60;101597.09;5096326;28;20512;-64
2023/04/06 10:35:08;;;;;;;7.03;1.73;;;;;;;11.13;39.79;101595.22;5096299;28;20833;-65
2023/04/06 10:37:49;;;;;;;7.63;2.00;;;;;;;11.30;37.83;101599.19;5095936;28;20444;-64
2023/04/06 10:40:20;;;;;;;6.07;1.80;;;;;;;11.34;37.18;101591.31;5096247;28;20452;-64
2023/04/06 10:42:47;;;;;;;5.70;1.63;;;;;;;11.34;37.88;101594.84;5095681;28;20538;-64
2023/04/06 10:45:22;;;;;;;29.20;2.33;;;;;;;11.41;37.11;101601.84;5096036;28;20464;-64
2023/04/06 10:47:49;;;;;;;6.93;2.23;;;;;;;11.46;38.36;101590.94;5096104;28;20477;-64
2023/04/06 10:50:17;;;;;;;8.83;1.87;;;;;;;11.65;36.35;101596.53;5095713;28;20444;-65
2023/04/06 10:52:45;;;;;;;6.83;2.10;;;;;;;11.69;36.26;101598.41;5095606;28;20444;-64
2023/04/06 10:55:13;;;;;;;7.67;2.30;;;;;;;11.92;36.11;101596.06;5095528;28;20471;-64
2023/04/06 10:57:40;;;;;;;6.30;2.40;;;;;;;12.04;36.49;101596.47;5095774;28;20436;-65
2023/04/06 11:00:09;;;;;;;5.90;1.70;;;;;;;12.21;37.29;101599.56;5095814;28;20470;-64
2023/04/06 11:02:37;;;;;;;6.93;1.90;;;;;;;12.25;38.70;101587.03;5095979;28;20819;-66
2023/04/06 11:05:04;;;;;;;6.97;2.07;;;;;;;12.35;38.22;101583.41;5095567;28;20488;-64
2023/04/06 11:07:31;;;;;;;7.03;1.70;;;;;;;12.40;37.70;101588.81;5094376;28;20436;-64
2023/04/06 11:09:58;;;;;;;5.73;1.70;;;;;;;12.42;38.25;101583.06;5095641;28;20505;-64
2023/04/06 11:12:25;;;;;;;7.97;2.47;;;;;;;12.70;39.81;101576.75;5095413;28;20876;-64
2023/04/06 11:15:00;;;;;;;5.37;1.63;;;;;;;12.78;37.77;101559.00;5095365;28;20453;-64
2023/04/06 11:17:28;;;;;;;15.60;2.13;;;;;;;13.08;37.51;101565.94;5095503;28;20557;-64
2023/04/06 11:19:56;;;;;;;6.70;1.90;;;;;;;13.62;35.72;101570.03;5095106;28;20435;-64
2023/04/06 11:22:23;;;;;;;5.93;1.80;;;;;;;14.69;34.54;101584.44;5095357;28;20939;-65
2023/04/06 11:24:50;;;;;;;5.80;1.63;;;;;;;15.88;32.88;101587.75;5094785;28;20491;-63
2023/04/06 11:27:18;;;;;;;6.90;2.17;;;;;;;16.24;31.12;101580.56;5095248;28;20460;-65
2023/04/06 11:29:46;;;;;;;5.67;1.40;;;;;;;16.20;31.60;101577.63;5095225;28;20440;-65